sensor_id;sensor_type;location;lat;lon;timestamp;temperature;humidity
20815;DHT22;10568;48.176;16.316;2022-09-12T00:00:19;13.70;99.90
20815;DHT22;10568;48.176;16.316;2022-09-12T00:02:46;13.70;99.90
20815;DHT22;10568;48.176;16.316;2022-09-12T00:05:12;13.70;99.90
20815;DHT22;10568;48.176;16.316;2022-09-12T00:07:37;13.70;99.90
20815;DHT22;10568;48.176;16.316;2022-09-12T00:10:04;13.70;99.90
20815;DHT22;10568;48.176;16.316;2022-09-12T00:12:29;13.70;99.90
20815;DHT22;10568;48.176;16.316;2022-09-12T00:14:55;13.70;99.90
20815;DHT22;10568;48.176;16.316;2022-09-12T00:17:21;13.70;99.90
20815;DHT22;10568;48.176;16.316;2022-09-12T00:19:47;13.70;99.90
20815;DHT22;10568;48.176;16.316;2022-09-12T00:22:13;13.60;99.90
20815;DHT22;10568;48.176;16.316;2022-09-12T00:27:48;13.60;99.90
20815;DHT22;10568;48.176;16.316;2022-09-12T00:30:14;13.70;99.90
20815;DHT22;10568;48.176;16.316;2022-09-12T00:32:40;13.70;99.90
20815;DHT22;10568;48.176;16.316;2022-09-12T00:35:06;13.70;99.90
20815;DHT22;10568;48.176;16.316;2022-09-12T00:37:33;13.70;99.90
20815;DHT22;10568;48.176;16.316;2022-09-12T00:40:00;13.70;99.90
20815;DHT22;10568;48.176;16.316;2022-09-12T00:42:26;13.70;99.90
20815;DHT22;10568;48.176;16.316;2022-09-12T00:44:52;13.60;99.90
20815;DHT22;10568;48.176;16.316;2022-09-12T00:47:22;13.70;99.90
20815;DHT22;10568;48.176;16.316;2022-09-12T00:49:59;13.60;99.90
20815;DHT22;10568;48.176;16.316;2022-09-12T00:52:41;13.60;99.90
20815;DHT22;10568;48.176;16.316;2022-09-12T00:55:16;13.60;99.90
20815;DHT22;10568;48.176;16.316;2022-09-12T00:57:56;13.60;99.90
20815;DHT22;10568;48.176;16.316;2022-09-12T01:00:26;13.60;99.90
20815;DHT22;10568;48.176;16.316;2022-09-12T01:03:06;13.60;99.90
20815;DHT22;10568;48.176;16.316;2022-09-12T01:05:35;13.60;99.90
20815;DHT22;10568;48.176;16.316;2022-09-12T01:08:03;13.60;99.90
20815;DHT22;10568;48.176;16.316;2022-09-12T01:10:32;13.60;99.90
20815;DHT22;10568;48.176;16.316;2022-09-12T01:12:59;13.60;99.90
20815;DHT22;10568;48.176;16.316;2022-09-12T01:15:25;13.60;99.90
20815;DHT22;10568;48.176;16.316;2022-09-12T01:21:02;13.60;99.90
20815;DHT22;10568;48.176;16.316;2022-09-12T01:23:50;13.60;99.90
20815;DHT22;10568;48.176;16.316;2022-09-12T01:29:55;13.60;99.90
20815;DHT22;10568;48.176;16.316;2022-09-12T01:32:58;13.60;99.90
20815;DHT22;10568;48.176;16.316;2022-09-12T01:35:59;13.60;99.90
20815;DHT22;10568;48.176;16.316;2022-09-12T01:38:49;13.60;99.90
20815;DHT22;10568;48.176;16.316;2022-09-12T01:41:27;13.70;99.90
20815;DHT22;10568;48.176;16.316;2022-09-12T01:47:05;13.70;99.90
20815;DHT22;10568;48.176;16.316;2022-09-12T01:52:29;13.80;99.90
20815;DHT22;10568;48.176;16.316;2022-09-12T01:55:06;13.70;99.90
20815;DHT22;10568;48.176;16.316;2022-09-12T01:57:42;13.80;99.90
20815;DHT22;10568;48.176;16.316;2022-09-12T02:00:10;13.80;99.90
20815;DHT22;10568;48.176;16.316;2022-09-12T02:03:05;13.80;99.90
20815;DHT22;10568;48.176;16.316;2022-09-12T02:05:38;13.80;99.90
20815;DHT22;10568;48.176;16.316;2022-09-12T02:08:09;13.80;99.90
20815;DHT22;10568;48.176;16.316;2022-09-12T02:10:50;13.80;99.90
20815;DHT22;10568;48.176;16.316;2022-09-12T02:13:38;13.80;99.90
20815;DHT22;10568;48.176;16.316;2022-09-12T02:16:12;13.80;99.90
20815;DHT22;10568;48.176;16.316;2022-09-12T02:18:47;13.80;99.90
20815;DHT22;10568;48.176;16.316;2022-09-12T02:21:15;13.80;99.90
20815;DHT22;10568;48.176;16.316;2022-09-12T02:23:47;13.80;99.90
20815;DHT22;10568;48.176;16.316;2022-09-12T02:26:22;13.80;99.90
20815;DHT22;10568;48.176;16.316;2022-09-12T02:28:49;13.70;99.90
20815;DHT22;10568;48.176;16.316;2022-09-12T02:31:47;13.70;99.90
20815;DHT22;10568;48.176;16.316;2022-09-12T02:37:24;13.60;99.90
20815;DHT22;10568;48.176;16.316;2022-09-12T02:39:55;13.60;99.90
20815;DHT22;10568;48.176;16.316;2022-09-12T02:45:43;13.50;99.90
20815;DHT22;10568;48.176;16.316;2022-09-12T02:48:26;13.50;99.90
20815;DHT22;10568;48.176;16.316;2022-09-12T02:50:53;13.50;99.90
20815;DHT22;10568;48.176;16.316;2022-09-12T02:53:19;13.40;99.90
20815;DHT22;10568;48.176;16.316;2022-09-12T02:55:44;13.40;99.90
20815;DHT22;10568;48.176;16.316;2022-09-12T02:58:16;13.40;99.90
20815;DHT22;10568;48.176;16.316;2022-09-12T03:09:38;13.20;99.90
20815;DHT22;10568;48.176;16.316;2022-09-12T03:12:09;13.20;99.90
20815;DHT22;10568;48.176;16.316;2022-09-12T03:14:50;13.20;99.90
20815;DHT22;10568;48.176;16.316;2022-09-12T03:17:39;13.10;99.90
20815;DHT22;10568;48.176;16.316;2022-09-12T03:23:37;13.10;99.90
20815;DHT22;10568;48.176;16.316;2022-09-12T03:26:15;13.10;99.90
20815;DHT22;10568;48.176;16.316;2022-09-12T03:28:43;13.10;99.90
20815;DHT22;10568;48.176;16.316;2022-09-12T03:31:14;13.00;99.90
20815;DHT22;10568;48.176;16.316;2022-09-12T03:33:41;13.10;99.90
20815;DHT22;10568;48.176;16.316;2022-09-12T03:36:18;13.00;99.90
20815;DHT22;10568;48.176;16.316;2022-09-12T03:38:44;13.00;99.90
20815;DHT22;10568;48.176;16.316;2022-09-12T03:41:10;13.00;99.90
20815;DHT22;10568;48.176;16.316;2022-09-12T03:43:36;13.00;99.90
20815;DHT22;10568;48.176;16.316;2022-09-12T03:46:02;13.00;99.90
20815;DHT22;10568;48.176;16.316;2022-09-12T03:48:38;13.00;99.90
20815;DHT22;10568;48.176;16.316;2022-09-12T03:51:06;13.00;99.90
20815;DHT22;10568;48.176;16.316;2022-09-12T03:53:33;12.90;99.90
20815;DHT22;10568;48.176;16.316;2022-09-12T03:55:59;13.00;99.90
20815;DHT22;10568;48.176;16.316;2022-09-12T03:58:29;12.90;99.90
20815;DHT22;10568;48.176;16.316;2022-09-12T04:00:55;12.90;99.90
20815;DHT22;10568;48.176;16.316;2022-09-12T04:03:21;12.90;99.90
20815;DHT22;10568;48.176;16.316;2022-09-12T04:05:47;12.90;99.90
20815;DHT22;10568;48.176;16.316;2022-09-12T04:08:13;12.80;99.90
20815;DHT22;10568;48.176;16.316;2022-09-12T04:10:40;12.80;99.90
20815;DHT22;10568;48.176;16.316;2022-09-12T04:13:06;12.80;99.90
20815;DHT22;10568;48.176;16.316;2022-09-12T04:15:32;12.80;99.90
20815;DHT22;10568;48.176;16.316;2022-09-12T04:17:58;12.80;99.90
20815;DHT22;10568;48.176;16.316;2022-09-12T04:20:24;12.80;99.90
20815;DHT22;10568;48.176;16.316;2022-09-12T04:22:49;12.80;99.90
20815;DHT22;10568;48.176;16.316;2022-09-12T04:25:15;12.80;99.90
20815;DHT22;10568;48.176;16.316;2022-09-12T04:27:41;12.80;99.90
20815;DHT22;10568;48.176;16.316;2022-09-12T04:30:08;12.90;99.90
20815;DHT22;10568;48.176;16.316;2022-09-12T04:32:34;12.90;99.90
20815;DHT22;10568;48.176;16.316;2022-09-12T04:35:00;13.00;99.90
20815;DHT22;10568;48.176;16.316;2022-09-12T04:37:26;13.00;99.90
20815;DHT22;10568;48.176;16.316;2022-09-12T04:39:52;13.10;99.90
20815;DHT22;10568;48.176;16.316;2022-09-12T04:42:22;13.20;99.90
20815;DHT22;10568;48.176;16.316;2022-09-12T04:44:48;13.20;99.90
20815;DHT22;10568;48.176;16.316;2022-09-12T04:47:14;13.30;99.90
20815;DHT22;10568;48.176;16.316;2022-09-12T04:49:41;13.40;99.90
20815;DHT22;10568;48.176;16.316;2022-09-12T04:52:07;13.40;99.90
20815;DHT22;10568;48.176;16.316;2022-09-12T04:54:33;13.40;99.90
20815;DHT22;10568;48.176;16.316;2022-09-12T04:56:59;13.50;99.90
20815;DHT22;10568;48.176;16.316;2022-09-12T04:59:25;13.50;99.90
20815;DHT22;10568;48.176;16.316;2022-09-12T05:01:51;13.50;99.90
20815;DHT22;10568;48.176;16.316;2022-09-12T05:04:17;13.50;99.90
20815;DHT22;10568;48.176;16.316;2022-09-12T05:06:44;13.50;99.90
20815;DHT22;10568;48.176;16.316;2022-09-12T05:09:12;13.60;99.90
20815;DHT22;10568;48.176;16.316;2022-09-12T05:11:40;13.60;99.90
20815;DHT22;10568;48.176;16.316;2022-09-12T05:14:09;13.60;99.90
20815;DHT22;10568;48.176;16.316;2022-09-12T05:16:34;13.70;99.90
20815;DHT22;10568;48.176;16.316;2022-09-12T05:19:01;13.70;99.90
20815;DHT22;10568;48.176;16.316;2022-09-12T05:21:26;13.80;99.90
20815;DHT22;10568;48.176;16.316;2022-09-12T05:23:54;13.80;99.90
20815;DHT22;10568;48.176;16.316;2022-09-12T05:26:21;13.90;99.90
20815;DHT22;10568;48.176;16.316;2022-09-12T05:28:48;13.90;99.90
20815;DHT22;10568;48.176;16.316;2022-09-12T05:31:20;14.00;99.90
20815;DHT22;10568;48.176;16.316;2022-09-12T05:33:47;14.00;99.90
20815;DHT22;10568;48.176;16.316;2022-09-12T05:36:25;14.00;99.90
20815;DHT22;10568;48.176;16.316;2022-09-12T05:38:52;14.00;99.90
20815;DHT22;10568;48.176;16.316;2022-09-12T05:41:24;14.00;99.90
20815;DHT22;10568;48.176;16.316;2022-09-12T05:43:52;14.00;99.90
20815;DHT22;10568;48.176;16.316;2022-09-12T05:46:20;14.00;99.90
20815;DHT22;10568;48.176;16.316;2022-09-12T05:48:47;14.00;99.90
20815;DHT22;10568;48.176;16.316;2022-09-12T05:51:19;14.10;99.90
20815;DHT22;10568;48.176;16.316;2022-09-12T05:53:47;14.10;99.90
20815;DHT22;10568;48.176;16.316;2022-09-12T05:56:17;14.10;99.90
20815;DHT22;10568;48.176;16.316;2022-09-12T05:58:46;14.20;99.90
20815;DHT22;10568;48.176;16.316;2022-09-12T06:01:14;14.30;99.90
20815;DHT22;10568;48.176;16.316;2022-09-12T06:03:42;14.30;99.90
20815;DHT22;10568;48.176;16.316;2022-09-12T06:06:10;14.40;99.90
20815;DHT22;10568;48.176;16.316;2022-09-12T06:08:44;14.40;99.90
20815;DHT22;10568;48.176;16.316;2022-09-12T06:11:14;14.50;99.90
20815;DHT22;10568;48.176;16.316;2022-09-12T06:13:41;14.50;99.90
20815;DHT22;10568;48.176;16.316;2022-09-12T06:16:19;14.50;99.90
20815;DHT22;10568;48.176;16.316;2022-09-12T06:18:54;14.60;99.90
20815;DHT22;10568;48.176;16.316;2022-09-12T06:21:21;14.60;99.90
20815;DHT22;10568;48.176;16.316;2022-09-12T06:23:48;14.60;99.90
20815;DHT22;10568;48.176;16.316;2022-09-12T06:26:15;14.60;99.90
20815;DHT22;10568;48.176;16.316;2022-09-12T06:28:43;14.70;99.90
20815;DHT22;10568;48.176;16.316;2022-09-12T06:34:31;14.90;99.90
20815;DHT22;10568;48.176;16.316;2022-09-12T06:36:57;15.00;99.90
20815;DHT22;10568;48.176;16.316;2022-09-12T06:39:23;15.20;99.90
20815;DHT22;10568;48.176;16.316;2022-09-12T06:41:50;15.20;99.90
20815;DHT22;10568;48.176;16.316;2022-09-12T06:44:19;15.30;99.90
20815;DHT22;10568;48.176;16.316;2022-09-12T06:46:47;15.40;99.90
20815;DHT22;10568;48.176;16.316;2022-09-12T06:49:14;15.50;99.90
20815;DHT22;10568;48.176;16.316;2022-09-12T06:51:40;15.60;99.90
20815;DHT22;10568;48.176;16.316;2022-09-12T06:54:07;15.70;99.90
20815;DHT22;10568;48.176;16.316;2022-09-12T06:56:33;15.90;99.90
20815;DHT22;10568;48.176;16.316;2022-09-12T06:58:59;15.90;99.90
20815;DHT22;10568;48.176;16.316;2022-09-12T07:01:27;16.00;99.90
20815;DHT22;10568;48.176;16.316;2022-09-12T07:03:59;16.10;99.90
20815;DHT22;10568;48.176;16.316;2022-09-12T07:06:28;16.10;99.90
20815;DHT22;10568;48.176;16.316;2022-09-12T07:08:58;16.30;99.90
20815;DHT22;10568;48.176;16.316;2022-09-12T07:11:26;16.40;99.90
20815;DHT22;10568;48.176;16.316;2022-09-12T07:13:54;16.40;99.90
20815;DHT22;10568;48.176;16.316;2022-09-12T07:16:20;16.40;99.90
20815;DHT22;10568;48.176;16.316;2022-09-12T07:18:51;16.50;99.90
20815;DHT22;10568;48.176;16.316;2022-09-12T07:24:23;16.60;99.90
20815;DHT22;10568;48.176;16.316;2022-09-12T07:26:49;16.60;99.90
20815;DHT22;10568;48.176;16.316;2022-09-12T07:29:15;16.70;99.90
20815;DHT22;10568;48.176;16.316;2022-09-12T07:31:42;16.70;99.90
20815;DHT22;10568;48.176;16.316;2022-09-12T07:34:08;16.80;99.90
20815;DHT22;10568;48.176;16.316;2022-09-12T07:36:34;16.80;99.90
20815;DHT22;10568;48.176;16.316;2022-09-12T07:39:00;16.80;99.90
20815;DHT22;10568;48.176;16.316;2022-09-12T07:41:28;16.80;99.90
20815;DHT22;10568;48.176;16.316;2022-09-12T07:43:56;16.80;99.90
20815;DHT22;10568;48.176;16.316;2022-09-12T07:46:24;16.80;99.90
20815;DHT22;10568;48.176;16.316;2022-09-12T07:48:52;16.90;99.90
20815;DHT22;10568;48.176;16.316;2022-09-12T07:51:18;17.00;99.90
20815;DHT22;10568;48.176;16.316;2022-09-12T07:53:45;17.00;99.90
20815;DHT22;10568;48.176;16.316;2022-09-12T07:56:27;17.00;99.90
20815;DHT22;10568;48.176;16.316;2022-09-12T07:58:54;17.00;99.90
20815;DHT22;10568;48.176;16.316;2022-09-12T08:01:21;17.20;99.90
20815;DHT22;10568;48.176;16.316;2022-09-12T08:03:54;17.50;99.90
20815;DHT22;10568;48.176;16.316;2022-09-12T08:06:23;17.70;99.90
20815;DHT22;10568;48.176;16.316;2022-09-12T08:08:50;17.90;99.90
20815;DHT22;10568;48.176;16.316;2022-09-12T08:11:19;18.10;99.90
20815;DHT22;10568;48.176;16.316;2022-09-12T08:13:45;18.20;99.90
20815;DHT22;10568;48.176;16.316;2022-09-12T08:16:16;18.20;99.90
20815;DHT22;10568;48.176;16.316;2022-09-12T08:18:43;18.30;99.90
20815;DHT22;10568;48.176;16.316;2022-09-12T08:21:15;18.50;99.90
20815;DHT22;10568;48.176;16.316;2022-09-12T08:23:42;18.90;99.90
20815;DHT22;10568;48.176;16.316;2022-09-12T08:26:09;18.90;99.90
20815;DHT22;10568;48.176;16.316;2022-09-12T08:28:36;18.80;99.90
20815;DHT22;10568;48.176;16.316;2022-09-12T08:31:04;18.50;99.90
20815;DHT22;10568;48.176;16.316;2022-09-12T08:33:31;18.60;99.90
20815;DHT22;10568;48.176;16.316;2022-09-12T08:36:10;18.70;99.90
20815;DHT22;10568;48.176;16.316;2022-09-12T08:38:38;18.80;99.90
20815;DHT22;10568;48.176;16.316;2022-09-12T08:43:42;18.90;99.90
20815;DHT22;10568;48.176;16.316;2022-09-12T08:46:18;19.40;99.90
20815;DHT22;10568;48.176;16.316;2022-09-12T08:48:47;19.30;99.90
20815;DHT22;10568;48.176;16.316;2022-09-12T08:51:15;19.10;99.90
20815;DHT22;10568;48.176;16.316;2022-09-12T08:53:44;19.00;99.90
20815;DHT22;10568;48.176;16.316;2022-09-12T08:56:11;18.80;99.90
20815;DHT22;10568;48.176;16.316;2022-09-12T08:58:45;18.80;99.90
20815;DHT22;10568;48.176;16.316;2022-09-12T09:01:31;19.10;99.90
20815;DHT22;10568;48.176;16.316;2022-09-12T09:11:50;19.90;99.90
20815;DHT22;10568;48.176;16.316;2022-09-12T09:17:18;21.00;99.90
20815;DHT22;10568;48.176;16.316;2022-09-12T09:22:42;21.70;99.90
20815;DHT22;10568;48.176;16.316;2022-09-12T09:25:18;22.20;99.90
20815;DHT22;10568;48.176;16.316;2022-09-12T09:27:57;22.40;99.90
20815;DHT22;10568;48.176;16.316;2022-09-12T09:30:24;22.20;99.90
20815;DHT22;10568;48.176;16.316;2022-09-12T09:32:52;22.10;99.90
20815;DHT22;10568;48.176;16.316;2022-09-12T09:35:43;21.60;99.90
20815;DHT22;10568;48.176;16.316;2022-09-12T09:38:24;21.80;99.90
20815;DHT22;10568;48.176;16.316;2022-09-12T09:43:43;21.80;99.90
20815;DHT22;10568;48.176;16.316;2022-09-12T09:46:10;22.30;99.90
20815;DHT22;10568;48.176;16.316;2022-09-12T09:48:40;22.60;99.90
20815;DHT22;10568;48.176;16.316;2022-09-12T09:51:06;22.80;99.90
20815;DHT22;10568;48.176;16.316;2022-09-12T09:56:38;23.60;99.90
20815;DHT22;10568;48.176;16.316;2022-09-12T09:59:25;23.30;99.90
20815;DHT22;10568;48.176;16.316;2022-09-12T10:02:00;23.40;99.90
20815;DHT22;10568;48.176;16.316;2022-09-12T10:04:34;23.40;99.90
20815;DHT22;10568;48.176;16.316;2022-09-12T10:07:02;23.30;99.90
20815;DHT22;10568;48.176;16.316;2022-09-12T10:09:29;23.00;99.90
20815;DHT22;10568;48.176;16.316;2022-09-12T10:11:58;22.60;99.90
20815;DHT22;10568;48.176;16.316;2022-09-12T10:14:31;22.70;99.90
20815;DHT22;10568;48.176;16.316;2022-09-12T10:17:01;23.00;99.90
20815;DHT22;10568;48.176;16.316;2022-09-12T10:19:38;22.80;99.90
20815;DHT22;10568;48.176;16.316;2022-09-12T10:22:16;22.30;99.90
20815;DHT22;10568;48.176;16.316;2022-09-12T10:24:48;22.60;99.90
20815;DHT22;10568;48.176;16.316;2022-09-12T10:27:19;23.20;99.90
20815;DHT22;10568;48.176;16.316;2022-09-12T10:29:47;23.50;99.90
20815;DHT22;10568;48.176;16.316;2022-09-12T10:32:38;23.70;99.90
20815;DHT22;10568;48.176;16.316;2022-09-12T10:35:15;23.00;99.90
20815;DHT22;10568;48.176;16.316;2022-09-12T10:38:00;23.20;99.90
20815;DHT22;10568;48.176;16.316;2022-09-12T10:40:29;23.70;99.90
20815;DHT22;10568;48.176;16.316;2022-09-12T10:45:38;24.10;99.90
20815;DHT22;10568;48.176;16.316;2022-09-12T10:48:27;24.30;99.90
20815;DHT22;10568;48.176;16.316;2022-09-12T10:50:55;24.30;99.90
20815;DHT22;10568;48.176;16.316;2022-09-12T10:53:31;24.80;99.90
20815;DHT22;10568;48.176;16.316;2022-09-12T10:56:12;24.80;99.90
20815;DHT22;10568;48.176;16.316;2022-09-12T11:01:43;24.50;99.90
20815;DHT22;10568;48.176;16.316;2022-09-12T11:10:32;24.20;99.90
20815;DHT22;10568;48.176;16.316;2022-09-12T11:30:04;24.90;99.90
20815;DHT22;10568;48.176;16.316;2022-09-12T11:32:56;25.40;99.90
20815;DHT22;10568;48.176;16.316;2022-09-12T11:35:33;25.90;99.90
20815;DHT22;10568;48.176;16.316;2022-09-12T11:40:51;26.10;99.90
20815;DHT22;10568;48.176;16.316;2022-09-12T11:43:45;25.70;99.90
20815;DHT22;10568;48.176;16.316;2022-09-12T11:46:33;25.60;99.90
20815;DHT22;10568;48.176;16.316;2022-09-12T11:52:03;25.90;99.90
20815;DHT22;10568;48.176;16.316;2022-09-12T11:57:42;26.40;99.90
20815;DHT22;10568;48.176;16.316;2022-09-12T12:05:50;25.50;99.90
20815;DHT22;10568;48.176;16.316;2022-09-12T12:08:22;24.90;99.60
20815;DHT22;10568;48.176;16.316;2022-09-12T12:13:18;24.40;99.50
20815;DHT22;10568;48.176;16.316;2022-09-12T12:15:48;24.90;99.90
20815;DHT22;10568;48.176;16.316;2022-09-12T12:18:19;25.10;99.90
20815;DHT22;10568;48.176;16.316;2022-09-12T12:20:46;25.40;99.90
20815;DHT22;10568;48.176;16.316;2022-09-12T12:23:33;25.40;99.90
20815;DHT22;10568;48.176;16.316;2022-09-12T12:26:01;25.60;98.90
20815;DHT22;10568;48.176;16.316;2022-09-12T12:31:07;25.10;99.90
20815;DHT22;10568;48.176;16.316;2022-09-12T12:33:50;25.20;99.90
20815;DHT22;10568;48.176;16.316;2022-09-12T12:36:36;25.40;99.90
20815;DHT22;10568;48.176;16.316;2022-09-12T12:41:57;25.70;99.10
20815;DHT22;10568;48.176;16.316;2022-09-12T12:47:20;25.80;99.10
20815;DHT22;10568;48.176;16.316;2022-09-12T12:49:58;25.90;99.20
20815;DHT22;10568;48.176;16.316;2022-09-12T12:52:28;25.80;97.70
20815;DHT22;10568;48.176;16.316;2022-09-12T12:55:03;25.50;98.20
20815;DHT22;10568;48.176;16.316;2022-09-12T13:05:24;25.20;98.30
20815;DHT22;10568;48.176;16.316;2022-09-12T13:08:03;25.30;97.00
20815;DHT22;10568;48.176;16.316;2022-09-12T13:10:31;25.40;98.80
20815;DHT22;10568;48.176;16.316;2022-09-12T13:12:59;25.70;98.70
20815;DHT22;10568;48.176;16.316;2022-09-12T13:18:09;25.90;99.00
20815;DHT22;10568;48.176;16.316;2022-09-12T13:20:45;25.20;96.30
20815;DHT22;10568;48.176;16.316;2022-09-12T13:23:38;24.90;97.80
20815;DHT22;10568;48.176;16.316;2022-09-12T13:26:11;24.30;97.30
20815;DHT22;10568;48.176;16.316;2022-09-12T13:28:38;23.70;97.50
20815;DHT22;10568;48.176;16.316;2022-09-12T13:31:22;23.70;97.60
20815;DHT22;10568;48.176;16.316;2022-09-12T13:33:54;24.00;99.90
20815;DHT22;10568;48.176;16.316;2022-09-12T13:39:18;23.60;97.90
20815;DHT22;10568;48.176;16.316;2022-09-12T13:44:16;22.80;97.20
20815;DHT22;10568;48.176;16.316;2022-09-12T13:46:44;23.00;98.10
20815;DHT22;10568;48.176;16.316;2022-09-12T13:49:33;23.40;99.00
20815;DHT22;10568;48.176;16.316;2022-09-12T13:52:08;23.70;98.10
20815;DHT22;10568;48.176;16.316;2022-09-12T13:54:39;24.20;98.40
20815;DHT22;10568;48.176;16.316;2022-09-12T13:57:05;24.40;98.80
20815;DHT22;10568;48.176;16.316;2022-09-12T13:59:40;24.40;98.30
20815;DHT22;10568;48.176;16.316;2022-09-12T14:02:21;24.50;97.80
20815;DHT22;10568;48.176;16.316;2022-09-12T14:04:48;25.00;99.50
20815;DHT22;10568;48.176;16.316;2022-09-12T14:10:22;24.90;97.40
20815;DHT22;10568;48.176;16.316;2022-09-12T14:12:50;25.30;98.40
20815;DHT22;10568;48.176;16.316;2022-09-12T14:15:25;25.20;99.30
20815;DHT22;10568;48.176;16.316;2022-09-12T14:17:55;24.70;99.10
20815;DHT22;10568;48.176;16.316;2022-09-12T14:20:27;24.40;97.10
20815;DHT22;10568;48.176;16.316;2022-09-12T14:23:03;24.20;99.90
20815;DHT22;10568;48.176;16.316;2022-09-12T14:25:39;24.10;99.90
20815;DHT22;10568;48.176;16.316;2022-09-12T14:28:05;23.80;99.90
20815;DHT22;10568;48.176;16.316;2022-09-12T14:30:36;23.60;99.90
20815;DHT22;10568;48.176;16.316;2022-09-12T14:35:38;23.20;99.90
20815;DHT22;10568;48.176;16.316;2022-09-12T14:38:20;23.20;99.90
20815;DHT22;10568;48.176;16.316;2022-09-12T14:40:49;22.80;99.90
20815;DHT22;10568;48.176;16.316;2022-09-12T14:43:30;22.80;99.90
20815;DHT22;10568;48.176;16.316;2022-09-12T14:46:16;22.60;99.90
20815;DHT22;10568;48.176;16.316;2022-09-12T14:48:50;22.50;99.90
20815;DHT22;10568;48.176;16.316;2022-09-12T14:51:26;22.20;99.90
20815;DHT22;10568;48.176;16.316;2022-09-12T14:53:53;22.20;99.90
20815;DHT22;10568;48.176;16.316;2022-09-12T14:56:52;22.10;99.90
20815;DHT22;10568;48.176;16.316;2022-09-12T15:04:52;22.00;99.90
20815;DHT22;10568;48.176;16.316;2022-09-12T15:07:31;21.90;99.90
20815;DHT22;10568;48.176;16.316;2022-09-12T15:10:00;21.90;99.90
20815;DHT22;10568;48.176;16.316;2022-09-12T15:12:27;21.70;99.90
20815;DHT22;10568;48.176;16.316;2022-09-12T15:14:58;21.80;99.90
20815;DHT22;10568;48.176;16.316;2022-09-12T15:17:25;21.70;99.90
20815;DHT22;10568;48.176;16.316;2022-09-12T15:19:51;21.60;99.90
20815;DHT22;10568;48.176;16.316;2022-09-12T15:22:17;21.60;99.90
20815;DHT22;10568;48.176;16.316;2022-09-12T15:24:44;21.50;99.90
20815;DHT22;10568;48.176;16.316;2022-09-12T15:27:12;21.40;99.90
20815;DHT22;10568;48.176;16.316;2022-09-12T15:29:38;21.40;99.90
20815;DHT22;10568;48.176;16.316;2022-09-12T15:32:05;21.30;99.90
20815;DHT22;10568;48.176;16.316;2022-09-12T15:34:31;21.30;99.90
20815;DHT22;10568;48.176;16.316;2022-09-12T15:36:57;21.20;99.90
20815;DHT22;10568;48.176;16.316;2022-09-12T15:39:23;21.20;99.90
20815;DHT22;10568;48.176;16.316;2022-09-12T15:41:49;21.20;99.90
20815;DHT22;10568;48.176;16.316;2022-09-12T15:44:15;21.10;99.90
20815;DHT22;10568;48.176;16.316;2022-09-12T15:46:41;21.00;99.90
20815;DHT22;10568;48.176;16.316;2022-09-12T15:49:06;21.00;99.90
20815;DHT22;10568;48.176;16.316;2022-09-12T15:51:32;20.90;99.90
20815;DHT22;10568;48.176;16.316;2022-09-12T15:53:59;20.80;99.90
20815;DHT22;10568;48.176;16.316;2022-09-12T15:56:26;20.80;99.90
20815;DHT22;10568;48.176;16.316;2022-09-12T15:58:52;20.70;99.90
20815;DHT22;10568;48.176;16.316;2022-09-12T16:01:18;20.60;99.90
20815;DHT22;10568;48.176;16.316;2022-09-12T16:03:47;20.60;99.90
20815;DHT22;10568;48.176;16.316;2022-09-12T16:06:14;20.50;99.90
20815;DHT22;10568;48.176;16.316;2022-09-12T16:08:40;20.40;99.90
20815;DHT22;10568;48.176;16.316;2022-09-12T16:11:25;20.40;99.90
20815;DHT22;10568;48.176;16.316;2022-09-12T16:13:52;20.30;99.90
20815;DHT22;10568;48.176;16.316;2022-09-12T16:16:18;20.20;99.90
20815;DHT22;10568;48.176;16.316;2022-09-12T16:18:44;20.10;99.90
20815;DHT22;10568;48.176;16.316;2022-09-12T16:21:10;20.10;99.90
20815;DHT22;10568;48.176;16.316;2022-09-12T16:23:35;20.10;99.90
20815;DHT22;10568;48.176;16.316;2022-09-12T16:26:05;20.00;99.90
20815;DHT22;10568;48.176;16.316;2022-09-12T16:28:31;19.90;99.90
20815;DHT22;10568;48.176;16.316;2022-09-12T16:31:00;19.90;99.90
20815;DHT22;10568;48.176;16.316;2022-09-12T16:33:27;19.80;99.90
20815;DHT22;10568;48.176;16.316;2022-09-12T16:36:00;19.70;99.90
20815;DHT22;10568;48.176;16.316;2022-09-12T16:38:27;19.60;99.90
20815;DHT22;10568;48.176;16.316;2022-09-12T16:41:02;19.60;99.90
20815;DHT22;10568;48.176;16.316;2022-09-12T16:43:30;19.50;99.90
20815;DHT22;10568;48.176;16.316;2022-09-12T16:46:16;19.40;99.90
20815;DHT22;10568;48.176;16.316;2022-09-12T16:48:48;19.30;99.90
20815;DHT22;10568;48.176;16.316;2022-09-12T16:51:15;19.20;99.90
20815;DHT22;10568;48.176;16.316;2022-09-12T16:53:41;19.20;99.90
20815;DHT22;10568;48.176;16.316;2022-09-12T16:56:08;19.10;99.90
20815;DHT22;10568;48.176;16.316;2022-09-12T16:58:36;19.10;99.90
20815;DHT22;10568;48.176;16.316;2022-09-12T17:01:05;19.00;99.90
20815;DHT22;10568;48.176;16.316;2022-09-12T17:03:32;18.90;99.90
20815;DHT22;10568;48.176;16.316;2022-09-12T17:06:04;18.90;99.90
20815;DHT22;10568;48.176;16.316;2022-09-12T17:08:33;18.70;99.90
20815;DHT22;10568;48.176;16.316;2022-09-12T17:11:06;18.60;99.90
20815;DHT22;10568;48.176;16.316;2022-09-12T17:13:32;18.50;99.90
20815;DHT22;10568;48.176;16.316;2022-09-12T17:16:11;18.40;99.90
20815;DHT22;10568;48.176;16.316;2022-09-12T17:18:37;18.30;99.90
20815;DHT22;10568;48.176;16.316;2022-09-12T17:21:06;18.20;99.90
20815;DHT22;10568;48.176;16.316;2022-09-12T17:23:32;18.10;99.90
20815;DHT22;10568;48.176;16.316;2022-09-12T17:25:58;18.00;99.90
20815;DHT22;10568;48.176;16.316;2022-09-12T17:28:24;17.90;99.90
20815;DHT22;10568;48.176;16.316;2022-09-12T17:31:02;17.80;99.90
20815;DHT22;10568;48.176;16.316;2022-09-12T17:33:28;17.80;99.90
20815;DHT22;10568;48.176;16.316;2022-09-12T17:36:05;17.70;99.90
20815;DHT22;10568;48.176;16.316;2022-09-12T17:38:33;17.60;99.90
20815;DHT22;10568;48.176;16.316;2022-09-12T17:41:09;17.50;99.90
20815;DHT22;10568;48.176;16.316;2022-09-12T17:43:39;17.50;99.90
20815;DHT22;10568;48.176;16.316;2022-09-12T17:46:05;17.50;99.90
20815;DHT22;10568;48.176;16.316;2022-09-12T17:48:32;17.40;99.90
20815;DHT22;10568;48.176;16.316;2022-09-12T17:51:06;17.40;99.90
20815;DHT22;10568;48.176;16.316;2022-09-12T17:53:32;17.30;99.90
20815;DHT22;10568;48.176;16.316;2022-09-12T17:56:03;17.30;99.90
20815;DHT22;10568;48.176;16.316;2022-09-12T17:58:30;17.20;99.90
20815;DHT22;10568;48.176;16.316;2022-09-12T18:01:09;17.20;99.90